Wetterdaten: aktuell Donnerstag, 07.05.2026 07:15
Datum Zeit Arbeit-Z. Temp. A. Bod.+5cm Temp. A. min Temp. A. max Bl.Temp +1m BTemp -5cm BTemp -10cm BTemp -20cm BTemp -50cm Feuchte I. Feuchte A. BlattFeu +1m BFeucht -5cm BFeucht-10cm BFeucht-20cm BFeucht-50cm Luftdruck Regen Wind Richtung Richtung Sonnenschein ET UV Solar Taupunkt Windchill Windböen Empfang
07.05.2026 07:15 22,3 °C 10,4 °C 9,4 °C 10,4 °C 10,5 °C 12,8 °C 12,8 °C 13,9 °C 14,4 °C 14,4 °C 50 % 92 % 15 lf 200 cb 174 cb 84 cb 73 cb 1010,5 hPa 0,2 l/m² 1,4 km/h (1 Bft) S 182 ° 0 min 0,000 mm 0,0 UV-I 32 W/m² 9,2 °C 10,4 °C 4,8 km/h (1 Bft) 91,87 %
07.05.2026 06:15 22,3 °C 10,4 °C 9,4 °C 10,3 °C 10,4 °C 12,8 °C 12,8 °C 13,9 °C 14,4 °C 14,4 °C 50 % 92 % 15 lf 200 cb 174 cb 84 cb 74 cb 1009,8 hPa 0,4 l/m² 0,6 km/h (0 Bft) O-NO 57 ° 0 min 0,000 mm 0,0 UV-I 0 W/m² 9,2 °C 10,4 °C 3,2 km/h (1 Bft) 98,33 %
07.05.2026 05:15 22,4 °C 10,5 °C 9,4 °C 10,5 °C 10,6 °C 12,8 °C 12,8 °C 13,9 °C 14,4 °C 14,4 °C 50 % 92 % 15 lf 200 cb 173 cb 83 cb 74 cb 1009,2 hPa 0,4 l/m² 1,7 km/h (1 Bft) SW 234 ° 0 min 0,000 mm 0,0 UV-I 0 W/m² 9,3 °C 10,5 °C 4,8 km/h (1 Bft) 93,16 %
07.05.2026 04:15 22,4 °C 10,7 °C 9,4 °C 10,7 °C 10,8 °C 12,8 °C 12,8 °C 14,4 °C 14,4 °C 14,4 °C 50 % 93 % 14 lf 200 cb 174 cb 83 cb 76 cb 1008,8 hPa 0,6 l/m² 1,1 km/h (1 Bft) NW 319 ° 0 min 0,000 mm 0,0 UV-I 0 W/m² 9,6 °C 10,7 °C 6,4 km/h (2 Bft) 95,31 %
07.05.2026 03:15 22,5 °C 11,1 °C 10,0 °C 11,0 °C 11,1 °C 13,3 °C 13,3 °C 14,4 °C 14,4 °C 14,4 °C 50 % 92 % 15 lf 200 cb 174 cb 83 cb 80 cb 1008,3 hPa 0,8 l/m² 2,8 km/h (1 Bft) S 178 ° 0 min 0,000 mm 0,0 UV-I 0 W/m² 9,8 °C 11,1 °C 6,4 km/h (2 Bft) 97,44 %
07.05.2026 02:15 22,6 °C 11,3 °C 10,0 °C 11,3 °C 11,3 °C 13,3 °C 13,3 °C 14,4 °C 14,4 °C 14,4 °C 51 % 93 % 14 lf 200 cb 174 cb 82 cb 83 cb 1008,0 hPa 1,6 l/m² 1,3 km/h (1 Bft) W 273 ° 0 min 0,000 mm 0,0 UV-I 0 W/m² 10,2 °C 11,3 °C 4,8 km/h (1 Bft) 94,31 %
07.05.2026 01:15 22,6 °C 11,1 °C 10,0 °C 11,1 °C 11,1 °C 13,3 °C 13,3 °C 14,4 °C 15,0 °C 14,4 °C 51 % 93 % 13 lf 200 cb 174 cb 83 cb 83 cb 1007,6 hPa 1,4 l/m² 2,0 km/h (1 Bft) SO 140 ° 0 min 0,000 mm 0,0 UV-I 0 W/m² 10,0 °C 11,1 °C 3,2 km/h (1 Bft) 95,37 %
07.05.2026 00:15 22,7 °C 11,2 °C 10,0 °C 11,2 °C 11,2 °C 13,9 °C 13,9 °C 15,0 °C 15,0 °C 14,4 °C 51 % 93 % 13 lf 200 cb 178 cb 83 cb 83 cb 1007,3 hPa 3,4 l/m² 4,3 km/h (1 Bft) O-SO 110 ° 0 min 0,000 mm 0,0 UV-I 0 W/m² 10,1 °C 11,2 °C 12,9 km/h (3 Bft) 93,39 %
06.05.2026 23:15 22,7 °C 11,8 °C 10,6 °C 11,8 °C 11,8 °C 13,9 °C 13,9 °C 15,0 °C 15,0 °C 14,4 °C 52 % 92 % 12 lf 200 cb 177 cb 83 cb 83 cb 1007,2 hPa 4,6 l/m² 3,0 km/h (1 Bft) SO 130 ° 0 min 0,000 mm 0,0 UV-I 0 W/m² 10,5 °C 11,8 °C 8,0 km/h (2 Bft) 99,19 %
06.05.2026 22:15 22,7 °C 12,3 °C 11,1 °C 12,3 °C 12,3 °C 14,4 °C 14,4 °C 15,0 °C 15,0 °C 14,4 °C 52 % 92 % 14 lf 200 cb 180 cb 84 cb 84 cb 1006,8 hPa 3,6 l/m² 2,2 km/h (1 Bft) NO 41 ° 0 min 0,000 mm 0,0 UV-I 0 W/m² 11,0 °C 12,3 °C 6,4 km/h (2 Bft) 94,17 %
06.05.2026 21:15 22,7 °C 12,7 °C 11,7 °C 12,7 °C 12,7 °C 14,4 °C 14,4 °C 15,0 °C 15,0 °C 14,4 °C 53 % 93 % 13 lf 200 cb 182 cb 85 cb 84 cb 1006,1 hPa 3,0 l/m² 0,1 km/h (0 Bft) S 184 ° 0 min 0,000 mm 0,0 UV-I 0 W/m² 11,6 °C 12,7 °C 1,6 km/h (1 Bft) 95,00 %
06.05.2026 20:15 22,7 °C 13,4 °C 12,2 °C 13,4 °C 13,6 °C 15,0 °C 15,0 °C 15,0 °C 15,0 °C 14,4 °C 53 % 92 % 15 lf 200 cb 187 cb 86 cb 84 cb 1005,2 hPa 0,8 l/m² 0,1 km/h (0 Bft) NW 325 ° 0 min 0,000 mm 0,0 UV-I 0 W/m² 12,1 °C 13,4 °C 1,6 km/h (1 Bft) 99,08 %
06.05.2026 19:15 22,6 °C 13,6 °C 12,2 °C 13,6 °C 13,7 °C 15,0 °C 15,0 °C 15,6 °C 15,0 °C 14,4 °C 53 % 93 % 15 lf 200 cb 193 cb 86 cb 85 cb 1004,5 hPa 0,4 l/m² 3,6 km/h (1 Bft) S-SW 201 ° 0 min 0,025 mm 0,0 UV-I 19 W/m² 12,5 °C 13,6 °C 9,7 km/h (2 Bft) 95,41 %
06.05.2026 18:15 22,6 °C 13,5 °C 12,2 °C 13,5 °C 13,6 °C 15,0 °C 15,0 °C 15,6 °C 15,0 °C 14,4 °C 51 % 93 % 14 lf 200 cb 200 cb 86 cb 85 cb 1004,6 hPa 4,6 l/m² 4,8 km/h (1 Bft) O-SO 117 ° 0 min 0,026 mm 0,0 UV-I 53 W/m² 12,4 °C 13,5 °C 14,5 km/h (3 Bft) 98,35 %
06.05.2026 17:15 22,6 °C 13,9 °C 12,8 °C 13,8 °C 13,9 °C 15,6 °C 15,6 °C 15,6 °C 15,0 °C 14,4 °C 51 % 92 % 15 lf 200 cb 200 cb 92 cb 87 cb 1004,8 hPa 4,4 l/m² 1,3 km/h (1 Bft) SO 126 ° 0 min 0,025 mm 0,0 UV-I 40 W/m² 12,6 °C 13,9 °C 4,8 km/h (1 Bft) 97,44 %
06.05.2026 16:15 22,5 °C 14,4 °C 12,2 °C 14,4 °C 14,8 °C 16,1 °C 16,1 °C 15,0 °C 14,4 °C 14,4 °C 48 % 86 % 15 lf 200 cb 200 cb 139 cb 89 cb 1004,4 hPa 4,6 l/m² 1,8 km/h (1 Bft) S-SO 150 ° 0 min 0,051 mm 0,0 UV-I 16 W/m² 12,1 °C 14,4 °C 4,8 km/h (1 Bft) 99,15 %
06.05.2026 15:15 22,6 °C 17,5 °C 16,1 °C 17,5 °C 17,7 °C 16,1 °C 16,1 °C 15,0 °C 14,4 °C 14,4 °C 48 % 71 % 0 lf 200 cb 200 cb 140 cb 89 cb 1003,4 hPa 0,0 l/m² 5,1 km/h (1 Bft) N 360 ° 40 min 0,178 mm 0,0 UV-I 49 W/m² 12,2 °C 17,5 °C 12,9 km/h (3 Bft) 96,58 %
06.05.2026 14:15 22,8 °C 18,8 °C 18,3 °C 18,4 °C 18,8 °C 16,1 °C 16,1 °C 15,0 °C 14,4 °C 14,4 °C 48 % 70 % 0 lf 200 cb 200 cb 140 cb 89 cb 1003,1 hPa 0,0 l/m² 5,4 km/h (1 Bft) NW 319 ° 60 min 0,152 mm 2,2 UV-I 362 W/m² 13,2 °C 18,8 °C 12,9 km/h (3 Bft) 93,55 %
06.05.2026 13:15 22,8 °C 18,3 °C 17,8 °C 18,3 °C 18,4 °C 15,6 °C 15,6 °C 15,0 °C 14,4 °C 14,4 °C 49 % 70 % 0 lf 200 cb 200 cb 140 cb 88 cb 1003,3 hPa 0,0 l/m² 3,6 km/h (1 Bft) W-NW 289 ° 60 min 0,178 mm 1,1 UV-I 162 W/m² 12,7 °C 18,3 °C 8,0 km/h (2 Bft) 96,30 %
06.05.2026 12:15 22,8 °C 17,3 °C 16,7 °C 17,1 °C 17,3 °C 15,6 °C 15,6 °C 14,4 °C 14,4 °C 14,4 °C 49 % 76 % 0 lf 200 cb 200 cb 140 cb 88 cb 1003,7 hPa 0,0 l/m² 1,9 km/h (1 Bft) N-NW 342 ° 55 min 0,203 mm 1,9 UV-I 279 W/m² 13,0 °C 17,3 °C 4,8 km/h (1 Bft) 97,48 %
06.05.2026 11:15 22,8 °C 18,1 °C 17,8 °C 17,6 °C 18,1 °C 15,0 °C 15,0 °C 14,4 °C 14,4 °C 14,4 °C 49 % 73 % 0 lf 200 cb 200 cb 140 cb 88 cb 1003,6 hPa 0,0 l/m² 7,3 km/h (2 Bft) N 360 ° 60 min 0,254 mm 3,6 UV-I 860 W/m² 13,2 °C 17,7 °C 14,5 km/h (3 Bft) 95,76 %
06.05.2026 10:15 22,8 °C 17,6 °C 17,2 °C 17,5 °C 17,6 °C 13,9 °C 13,9 °C 14,4 °C 14,4 °C 14,4 °C 48 % 73 % 0 lf 200 cb 200 cb 140 cb 88 cb 1003,5 hPa 0,0 l/m² 2,2 km/h (1 Bft) SW 218 ° 60 min 0,203 mm 2,1 UV-I 563 W/m² 12,7 °C 17,6 °C 8,0 km/h (2 Bft) 95,37 %
06.05.2026 09:15 22,8 °C 16,3 °C 13,9 °C 16,1 °C 16,3 °C 13,3 °C 13,3 °C 14,4 °C 15,0 °C 14,4 °C 48 % 80 % 0 lf 200 cb 200 cb 142 cb 88 cb 1003,0 hPa 0,0 l/m² 1,4 km/h (1 Bft) NW 313 ° 60 min 0,127 mm 1,2 UV-I 330 W/m² 12,8 °C 16,3 °C 4,8 km/h (1 Bft) 94,44 %
06.05.2026 08:15 22,8 °C 13,7 °C 12,2 °C 13,3 °C 13,7 °C 13,3 °C 13,3 °C 14,4 °C 15,0 °C 14,4 °C 49 % 92 % 15 lf 200 cb 200 cb 142 cb 88 cb 1003,5 hPa 0,0 l/m² 0,0 km/h (0 Bft) S-SO 157 ° 15 min 0,051 mm 0,6 UV-I 227 W/m² 12,4 °C 13,7 °C 0,0 km/h (0 Bft) 96,75 %
06.05.2026 08:00 22,8 °C 12,8 °C 11,7 °C 12,4 °C 12,8 °C 13,3 °C 13,3 °C 14,4 °C 15,0 °C 14,4 °C 49 % 94 % 15 lf 200 cb 200 cb 142 cb 88 cb 1003,6 hPa 0,0 l/m² 0,3 km/h (0 Bft) O 101 ° 0 min 0,051 mm 0,5 UV-I 213 W/m² 11,9 °C 12,8 °C 1,6 km/h (1 Bft) 97,44 %
_ Min-Zeit 05:30 06:00 04:05 06:00 05:55 04:00 04:00 04:25 09:25 08:00 14:45 14:30 09:05 08:00 01:35 23:25 06:40 09:05 - 08:15 - - - - - - 06:05 06:05 08:15 03:45
Minimum _ 22,3 °C 10,3 °C 9,4 °C 10,3 °C 10,4 °C 12,8 °C 12,8 °C 13,9 °C 14,4 °C 14,4 °C 47 % 67 % 0 lf 200 cb 173 cb 82 cb 73 cb 1003,0 hPa - 0,0 km/h (0 Bft) - - - - - - 9,1 °C 10,3 °C 0,0 km/h (0 Bft) 88,03 %
_ Max-Zeit 08:00 14:15 13:10 14:20 14:15 13:35 13:35 16:45 08:00 08:00 18:20 08:00 08:00 08:00 08:00 08:00 14:10 07:15 16:10 11:45 - - 08:00 11:00 11:15 11:15 10:30 14:15 14:30 13:10
Maximum _ 22,8 °C 18,8 °C 18,3 °C 18,8 °C 18,8 °C 16,1 °C 16,1 °C 15,6 °C 15,0 °C 14,4 °C 53 % 94 % 15 lf 200 cb 200 cb 142 cb 89 cb 1010,5 hPa 1,4 l/m² 7,9 km/h
W-SW (2 Bft)
- - 5 min 0,254 mm 3,6 UV-I 860 W/m² 13,9 °C 18,8 °C 19,3 km/h
N-NW (3 Bft)
100,00 %
Durchschnitt _ 22,6 °C 13,7 °C 12,5 °C 13,6 °C 13,8 °C 14,2 °C 14,2 °C 14,7 °C 14,7 °C 14,4 °C 50 % 87 % 11 lf 200 cb 189 cb 109 cb 84 cb 1005,6 hPa #34,8 l/m² 2,4 km/h (1 Bft) SO - #0 min. #0,000 mm 0,0 UV-I 22 W/m² 11,5 °C 13,7 °C 6,6 km/h (2 Bft) 95,63 %
copy; 2009 Dieter Kraft